createdAt,value
2022-10-11T00:02:09.222Z,81.29
2022-10-11T00:04:35.859Z,81.26
2022-10-11T00:07:02.372Z,81.23
2022-10-11T00:09:29.949Z,81.23
2022-10-11T00:11:57.180Z,81.29
2022-10-11T00:14:26.275Z,81.38
2022-10-11T00:16:54.080Z,81.46
2022-10-11T00:19:21.503Z,81.56
2022-10-11T00:21:48.110Z,81.56
2022-10-11T00:24:16.220Z,81.61
2022-10-11T00:26:46.590Z,81.51
2022-10-11T00:29:13.989Z,81.49
2022-10-11T00:31:40.807Z,81.41
2022-10-11T00:34:08.765Z,81.40
2022-10-11T00:36:35.747Z,81.42
2022-10-11T00:39:02.923Z,81.57
2022-10-11T00:41:29.775Z,81.40
2022-10-11T00:44:21.525Z,81.36
2022-10-11T00:46:58.376Z,81.37
2022-10-11T00:49:39.596Z,81.37
2022-10-11T00:52:24.108Z,81.29
2022-10-11T00:54:51.307Z,81.28
2022-10-11T00:57:22.501Z,81.18
2022-10-11T00:59:53.138Z,81.07
2022-10-11T01:02:21.127Z,80.96
2022-10-11T01:04:47.737Z,80.98
2022-10-11T01:07:14.474Z,80.89
2022-10-11T01:09:41.091Z,80.80
2022-10-11T01:12:19.132Z,80.79
2022-10-11T01:15:18.140Z,80.85
2022-10-11T01:18:11.182Z,80.81
2022-10-11T01:21:09.159Z,80.92
2022-10-11T01:24:08.783Z,80.78
2022-10-11T01:26:54.801Z,80.75
2022-10-11T01:30:10.035Z,80.66
2022-10-11T01:32:54.129Z,80.57
2022-10-11T01:35:34.843Z,80.50
2022-10-11T01:38:29.030Z,80.54
2022-10-11T01:41:03.881Z,80.55
2022-10-11T01:43:31.225Z,80.47
2022-10-11T01:46:00.133Z,80.42
2022-10-11T01:48:26.833Z,80.40
2022-10-11T01:50:58.808Z,80.44
2022-10-11T01:54:13.223Z,80.54
2022-10-11T01:57:14.571Z,80.79
2022-10-11T01:59:50.997Z,80.92
2022-10-11T02:02:50.024Z,81.13
2022-10-11T02:05:57.080Z,81.25
2022-10-11T02:08:48.315Z,81.37
2022-10-11T02:11:31.747Z,81.42
2022-10-11T02:14:23.598Z,81.40
2022-10-11T02:17:11.073Z,81.34
2022-10-11T02:19:43.974Z,81.33
2022-10-11T02:22:19.234Z,81.46
2022-10-11T02:24:50.469Z,81.53
2022-10-11T02:27:21.724Z,81.59
2022-10-11T02:29:51.431Z,81.53
2022-10-11T02:32:19.724Z,81.55
2022-10-11T02:34:59.416Z,81.52
2022-10-11T02:37:41.520Z,81.60
2022-10-11T02:40:20.981Z,81.62
2022-10-11T02:42:59.783Z,81.54
2022-10-11T02:45:37.581Z,81.44
2022-10-11T02:48:06.740Z,81.43
2022-10-11T02:50:33.451Z,81.46
2022-10-11T02:53:00.176Z,81.53
2022-10-11T02:55:26.778Z,81.67
2022-10-11T02:57:53.792Z,81.63
2022-10-11T03:00:20.590Z,81.57
2022-10-11T03:02:47.371Z,81.66
2022-10-11T03:05:14.204Z,81.60
2022-10-11T03:07:40.799Z,81.65
2022-10-11T03:10:08.268Z,81.73
2022-10-11T03:12:34.873Z,81.80
2022-10-11T03:15:02.248Z,81.80
2022-10-11T03:17:36.476Z,81.77
2022-10-11T03:20:05.884Z,81.78
2022-10-11T03:22:32.562Z,81.78
2022-10-11T03:25:03.632Z,81.73
2022-10-11T03:27:32.690Z,81.88
2022-10-11T03:29:59.339Z,81.88
2022-10-11T03:32:26.278Z,81.79
2022-10-11T03:34:52.876Z,81.67
2022-10-11T03:37:19.501Z,81.61
2022-10-11T03:39:46.112Z,81.60
2022-10-11T03:42:14.042Z,81.63
2022-10-11T03:44:42.143Z,81.66
2022-10-11T03:47:09.374Z,81.60
2022-10-11T03:49:38.809Z,81.46
2022-10-11T03:52:23.182Z,81.59
2022-10-11T03:54:49.712Z,81.50
2022-10-11T03:57:16.319Z,81.49
2022-10-11T03:59:42.864Z,81.63
2022-10-11T04:02:09.778Z,81.48
2022-10-11T04:04:37.436Z,81.59
2022-10-11T04:07:04.049Z,81.48
2022-10-11T04:09:31.103Z,81.38
2022-10-11T04:11:57.850Z,81.43
2022-10-11T04:14:24.431Z,81.40
2022-10-11T04:16:51.004Z,81.40
2022-10-11T04:19:17.568Z,81.44
2022-10-11T04:21:44.144Z,81.47
2022-10-11T04:24:13.495Z,81.50
2022-10-11T04:26:40.154Z,81.60
2022-10-11T04:29:06.658Z,81.74
2022-10-11T04:31:33.206Z,81.69
2022-10-11T04:33:59.815Z,81.53
2022-10-11T04:36:26.581Z,81.55
2022-10-11T04:38:56.145Z,81.60
2022-10-11T04:41:22.658Z,81.70
2022-10-11T04:43:49.217Z,81.70
2022-10-11T04:46:15.797Z,81.64
2022-10-11T04:48:42.322Z,81.70
2022-10-11T04:51:08.863Z,81.77
2022-10-11T04:53:35.474Z,81.65
2022-10-11T04:56:07.854Z,81.60
2022-10-11T04:58:35.309Z,81.61
2022-10-11T05:01:01.942Z,81.67
2022-10-11T05:03:28.513Z,81.71
2022-10-11T05:05:55.339Z,81.77
2022-10-11T05:08:23.375Z,81.83
2022-10-11T05:11:02.270Z,81.85
2022-10-11T05:13:29.719Z,81.80
2022-10-11T05:15:57.047Z,81.74
2022-10-11T05:18:24.572Z,81.74
2022-10-11T05:21:03.477Z,81.81
2022-10-11T05:23:33.235Z,81.72
2022-10-11T05:26:00.695Z,81.77
2022-10-11T05:28:28.344Z,81.87
2022-10-11T05:30:55.303Z,82.05
2022-10-11T05:33:22.354Z,82.11
2022-10-11T05:35:48.893Z,82.10
2022-10-11T05:38:17.548Z,82.18
2022-10-11T05:40:44.114Z,82.18
2022-10-11T05:43:11.454Z,82.14
2022-10-11T05:45:40.436Z,82.13
2022-10-11T05:48:06.994Z,82.19
2022-10-11T05:50:33.832Z,82.30
2022-10-11T05:53:00.529Z,82.32
2022-10-11T05:55:28.088Z,82.28
2022-10-11T05:57:56.801Z,82.25
2022-10-11T06:00:24.539Z,82.17
2022-10-11T06:02:51.181Z,81.99
2022-10-11T06:05:18.207Z,81.87
2022-10-11T06:07:44.829Z,81.87
2022-10-11T06:10:12.492Z,81.75
2022-10-11T06:12:39.130Z,81.56
2022-10-11T06:15:07.492Z,81.49
2022-10-11T06:17:34.757Z,81.40
2022-10-11T06:20:01.335Z,81.40
2022-10-11T06:22:28.040Z,81.29
2022-10-11T06:24:54.541Z,81.19
2022-10-11T06:27:21.241Z,81.10
2022-10-11T06:29:47.891Z,81.04
2022-10-11T06:32:14.536Z,80.65
2022-10-11T06:34:41.554Z,80.66
2022-10-11T06:37:08.781Z,80.71
2022-10-11T06:39:35.914Z,80.69
2022-10-11T06:42:02.632Z,80.61
2022-10-11T06:44:29.402Z,80.43
2022-10-11T06:46:56.015Z,80.40
2022-10-11T06:49:23.633Z,80.16
2022-10-11T06:51:51.093Z,80.00
2022-10-11T06:54:17.705Z,80.09
2022-10-11T06:56:45.619Z,80.11
2022-10-11T06:59:13.431Z,79.97
2022-10-11T07:01:40.144Z,79.93
2022-10-11T07:04:08.102Z,79.93
2022-10-11T07:06:39.167Z,79.73
2022-10-11T07:09:07.511Z,79.73
2022-10-11T07:11:35.028Z,79.51
2022-10-11T07:14:07.601Z,79.42
2022-10-11T07:16:37.319Z,79.22
2022-10-11T07:19:06.457Z,79.13
2022-10-11T07:21:34.567Z,79.18
2022-10-11T07:24:02.136Z,79.23
2022-10-11T07:26:35.186Z,78.86
2022-10-11T07:29:04.539Z,79.05
2022-10-11T07:31:31.209Z,78.90
2022-10-11T07:33:57.821Z,78.79
2022-10-11T07:36:25.746Z,78.43
2022-10-11T07:38:52.660Z,78.24
2022-10-11T07:41:20.002Z,78.27
2022-10-11T07:43:49.548Z,78.24
2022-10-11T07:46:19.190Z,77.95
2022-10-11T07:48:45.875Z,77.83
2022-10-11T07:51:20.021Z,77.47
2022-10-11T07:53:54.316Z,77.53
2022-10-11T07:56:27.658Z,77.33
2022-10-11T07:59:00.896Z,77.28
2022-10-11T08:01:28.411Z,76.91
2022-10-11T08:03:59.516Z,76.37
2022-10-11T08:06:31.632Z,76.05
2022-10-11T08:09:00.594Z,75.98
2022-10-11T08:11:34.881Z,75.93
2022-10-11T08:14:06.188Z,75.90
2022-10-11T08:16:32.778Z,75.90
2022-10-11T08:19:00.701Z,75.76
2022-10-11T08:21:27.239Z,75.12
2022-10-11T08:23:53.757Z,75.09
2022-10-11T08:26:21.196Z,75.31
2022-10-11T08:28:47.955Z,74.87
2022-10-11T08:31:16.200Z,73.95
2022-10-11T08:33:43.339Z,72.97
2022-10-11T08:36:10.918Z,72.27
2022-10-11T08:38:38.903Z,72.17
2022-10-11T08:41:39.481Z,72.83
2022-10-11T08:45:05.399Z,72.40
2022-10-11T08:47:34.173Z,71.64
2022-10-11T08:50:01.322Z,70.04
2022-10-11T08:52:41.904Z,68.69
2022-10-11T08:55:40.524Z,69.70
2022-10-11T08:58:09.296Z,69.18
2022-10-11T09:00:38.390Z,68.14
2022-10-11T09:03:31.560Z,67.87
2022-10-11T09:06:35.248Z,66.13
2022-10-11T09:09:41.863Z,66.26
2022-10-11T09:12:41.085Z,66.04
2022-10-11T09:15:32.793Z,64.57
2022-10-11T09:18:54.256Z,64.57
2022-10-11T09:21:36.815Z,64.01
2022-10-11T09:24:25.168Z,63.58
2022-10-11T09:27:00.877Z,62.36
2022-10-11T09:29:57.576Z,62.52
2022-10-11T09:32:36.090Z,63.00
2022-10-11T09:35:14.403Z,63.59
2022-10-11T09:38:23.082Z,64.33
2022-10-11T09:41:15.247Z,64.98
2022-10-11T09:43:48.426Z,65.53
2022-10-11T09:46:32.669Z,66.03
2022-10-11T09:49:03.886Z,65.91
2022-10-11T09:51:31.599Z,65.57
2022-10-11T09:54:02.069Z,65.47
2022-10-11T09:56:32.053Z,65.65
2022-10-11T09:59:31.526Z,65.71
2022-10-11T10:02:13.278Z,65.88
2022-10-11T10:05:11.221Z,65.92
2022-10-11T10:07:40.962Z,65.98
2022-10-11T10:10:38.972Z,66.18
2022-10-11T10:13:21.847Z,65.54
2022-10-11T10:15:55.612Z,65.50
2022-10-11T10:18:28.465Z,65.44
2022-10-11T10:20:59.535Z,64.68
2022-10-11T10:23:33.043Z,64.10
2022-10-11T10:26:22.715Z,64.16
2022-10-11T10:29:09.161Z,64.11
2022-10-11T10:35:12.934Z,64.22
2022-10-11T10:37:53.011Z,64.11
2022-10-11T10:40:47.680Z,64.15
2022-10-11T10:43:18.735Z,64.03
2022-10-11T10:46:12.992Z,64.00
2022-10-11T10:52:25.342Z,63.53
2022-10-11T10:55:23.209Z,63.16
2022-10-11T10:58:18.584Z,62.61
2022-10-11T11:00:50.276Z,62.39
2022-10-11T11:03:34.554Z,62.33
2022-10-11T11:06:08.243Z,61.96
2022-10-11T11:09:21.279Z,61.81
2022-10-11T11:12:05.905Z,60.91
2022-10-11T11:14:52.682Z,60.29
2022-10-11T11:18:03.602Z,59.97
2022-10-11T11:21:12.724Z,60.46
2022-10-11T11:24:10.296Z,60.16
2022-10-11T11:27:03.851Z,60.41
2022-10-11T11:30:17.347Z,60.67
2022-10-11T11:33:38.546Z,61.00
2022-10-11T11:36:13.652Z,61.15
2022-10-11T11:38:51.027Z,60.88
2022-10-11T11:41:26.176Z,61.27
2022-10-11T11:44:10.754Z,61.45
2022-10-11T11:46:44.826Z,61.57
2022-10-11T11:49:45.217Z,61.82
2022-10-11T11:52:37.228Z,61.33
2022-10-11T11:55:36.385Z,61.21
2022-10-11T11:58:35.086Z,61.24
2022-10-11T12:01:15.112Z,61.49
2022-10-11T12:03:48.441Z,61.68
2022-10-11T12:06:14.892Z,62.06
2022-10-11T12:08:46.421Z,62.05
2022-10-11T12:11:24.420Z,61.05
2022-10-11T12:13:53.907Z,61.30
2022-10-11T12:16:21.748Z,61.09
2022-10-11T12:18:56.333Z,60.68
2022-10-11T12:21:36.190Z,59.98
2022-10-11T12:24:24.139Z,59.41
2022-10-11T12:26:56.311Z,59.67
2022-10-11T12:29:44.679Z,59.30
2022-10-11T12:32:26.332Z,59.91
2022-10-11T12:35:31.424Z,59.37
2022-10-11T12:38:23.102Z,59.61
2022-10-11T12:41:09.467Z,59.83
2022-10-11T12:44:19.251Z,59.06
2022-10-11T12:46:54.865Z,59.00
2022-10-11T12:49:33.378Z,58.50
2022-10-11T12:52:22.952Z,58.18
2022-10-11T12:55:11.926Z,58.34
2022-10-11T12:58:07.530Z,58.40
2022-10-11T13:00:40.146Z,57.72
2022-10-11T13:03:39.227Z,57.99
2022-10-11T13:06:24.801Z,59.07
2022-10-11T13:09:05.059Z,60.10
2022-10-11T13:11:37.036Z,60.96
2022-10-11T13:14:13.361Z,61.48
2022-10-11T13:17:13.207Z,61.77
2022-10-11T13:22:23.352Z,62.24
2022-10-11T13:24:50.047Z,62.36
2022-10-11T13:27:27.439Z,62.47
2022-10-11T13:29:59.403Z,62.53
2022-10-11T13:32:31.891Z,62.57
2022-10-11T13:35:04.152Z,62.61
2022-10-11T13:37:45.259Z,62.75
2022-10-11T13:40:18.693Z,62.68
2022-10-11T13:42:48.355Z,62.48
2022-10-11T13:45:27.406Z,62.57
2022-10-11T13:47:55.082Z,62.71
2022-10-11T13:50:33.704Z,62.74
2022-10-11T13:53:23.166Z,62.60
2022-10-11T13:55:55.303Z,62.85
2022-10-11T13:58:34.211Z,62.83
2022-10-11T14:01:05.037Z,62.78
2022-10-11T14:03:44.216Z,62.89
2022-10-11T14:06:11.072Z,63.43
2022-10-11T14:08:46.587Z,63.64
2022-10-11T14:11:15.534Z,63.83
2022-10-11T14:13:45.860Z,64.04
2022-10-11T14:16:29.970Z,63.99
2022-10-11T14:18:59.683Z,64.04
2022-10-11T14:21:49.196Z,64.19
2022-10-11T14:24:17.896Z,64.36
2022-10-11T14:26:50.880Z,64.43
2022-10-11T14:29:28.672Z,64.60
2022-10-11T14:32:04.981Z,64.51
2022-10-11T14:34:33.245Z,64.52
2022-10-11T14:37:00.051Z,64.50
2022-10-11T14:39:30.472Z,64.64
2022-10-11T14:41:57.528Z,64.69
2022-10-11T14:44:24.544Z,64.72
2022-10-11T14:46:54.560Z,64.88
2022-10-11T14:49:29.283Z,65.10
2022-10-11T14:51:58.272Z,65.24
2022-10-11T14:54:28.322Z,65.22
2022-10-11T14:56:59.065Z,65.11
2022-10-11T14:59:31.185Z,65.22
2022-10-11T15:01:57.719Z,65.22
2022-10-11T15:04:26.821Z,65.29
2022-10-11T15:06:57.013Z,65.27
2022-10-11T15:09:28.425Z,65.11
2022-10-11T15:11:56.189Z,65.38
2022-10-11T15:14:25.225Z,65.73
2022-10-11T15:16:51.974Z,65.91
2022-10-11T15:19:24.969Z,66.13
2022-10-11T15:21:52.558Z,66.35
2022-10-11T15:24:22.516Z,66.38
2022-10-11T15:26:49.527Z,66.50
2022-10-11T15:29:21.863Z,66.63
2022-10-11T15:31:49.463Z,66.58
2022-10-11T15:34:16.921Z,66.70
2022-10-11T15:36:43.678Z,66.66
2022-10-11T15:39:37.176Z,66.63
2022-10-11T15:42:03.924Z,66.79
2022-10-11T15:44:30.439Z,66.77
2022-10-11T15:46:57.015Z,66.94
2022-10-11T15:49:23.588Z,67.16
2022-10-11T15:51:50.201Z,67.13
2022-10-11T15:54:16.765Z,67.30
2022-10-11T15:56:43.333Z,67.37
2022-10-11T15:59:11.905Z,67.42
2022-10-11T16:01:38.672Z,67.56
2022-10-11T16:04:05.441Z,67.55
2022-10-11T16:06:33.352Z,67.55
2022-10-11T16:08:59.925Z,67.65
2022-10-11T16:11:26.574Z,67.76
2022-10-11T16:33:54.553Z,68.31
2022-10-11T16:36:32.418Z,68.39
2022-10-11T16:39:01.768Z,68.45
2022-10-11T16:41:28.343Z,68.35
2022-10-11T16:43:55.801Z,68.18
2022-10-11T16:46:22.765Z,68.19
2022-10-11T16:48:49.678Z,68.17
2022-10-11T16:51:16.289Z,68.09
2022-10-11T16:53:42.939Z,68.06
2022-10-11T16:56:11.273Z,68.13
2022-10-11T16:58:37.874Z,68.11
2022-10-11T17:01:10.487Z,68.21
2022-10-11T17:03:37.684Z,68.16
2022-10-11T17:06:06.233Z,68.16
2022-10-11T17:08:33.464Z,68.26
2022-10-11T17:11:00.463Z,68.25
2022-10-11T17:13:27.808Z,68.23
2022-10-11T17:15:54.429Z,68.27
2022-10-11T17:18:21.072Z,68.38
2022-10-11T17:20:47.935Z,68.39
2022-10-11T17:23:14.703Z,68.53
2022-10-11T17:25:46.541Z,68.69
2022-10-11T17:28:13.682Z,68.76
2022-10-11T17:30:43.271Z,68.82
2022-10-11T17:33:09.944Z,68.73
2022-10-11T17:35:36.704Z,68.72
2022-10-11T17:38:06.283Z,68.64
2022-10-11T17:40:33.314Z,68.49
2022-10-11T17:42:59.943Z,68.55
2022-10-11T17:45:26.628Z,68.57
2022-10-11T17:47:53.239Z,68.67
2022-10-11T17:50:19.807Z,68.79
2022-10-11T17:52:46.518Z,69.04
2022-10-11T17:55:13.598Z,69.43
2022-10-11T17:57:40.301Z,69.71
2022-10-11T18:00:07.969Z,70.20
2022-10-11T18:02:34.628Z,70.74
2022-10-11T18:05:01.332Z,71.89
2022-10-11T18:07:28.000Z,72.26
2022-10-11T18:09:55.491Z,72.51
2022-10-11T18:12:22.202Z,72.79
2022-10-11T18:14:50.982Z,72.84
2022-10-11T18:17:18.608Z,72.71
2022-10-11T18:19:45.211Z,73.04
2022-10-11T18:22:11.853Z,73.28
2022-10-11T18:24:39.131Z,73.44
2022-10-11T18:27:05.752Z,73.62
2022-10-11T18:29:32.573Z,73.67
2022-10-11T18:31:59.154Z,74.00
2022-10-11T18:34:28.185Z,73.84
2022-10-11T18:36:54.823Z,73.98
2022-10-11T18:39:22.113Z,74.27
2022-10-11T18:41:48.872Z,74.49
2022-10-11T18:44:16.101Z,74.44
2022-10-11T18:46:44.181Z,74.32
2022-10-11T18:49:11.243Z,74.52
2022-10-11T18:51:42.359Z,74.39
2022-10-11T18:54:16.940Z,74.49
2022-10-11T18:56:46.915Z,74.61
2022-10-11T18:59:13.606Z,74.65
2022-10-11T19:01:44.318Z,74.59
2022-10-11T19:04:15.617Z,74.74
2022-10-11T19:06:47.721Z,74.93
2022-10-11T19:09:21.834Z,75.04
2022-10-11T19:11:51.735Z,75.07
2022-10-11T19:14:25.557Z,75.17
2022-10-11T19:16:55.249Z,75.16
2022-10-11T19:19:27.015Z,75.11
2022-10-11T19:21:54.622Z,75.17
2022-10-11T19:24:24.449Z,75.26
2022-10-11T19:26:54.710Z,75.53
2022-10-11T19:29:28.690Z,75.59
2022-10-11T19:32:01.100Z,75.74
2022-10-11T19:34:28.780Z,75.95
2022-10-11T19:36:57.504Z,76.01
2022-10-11T19:39:25.543Z,75.96
2022-10-11T19:41:52.741Z,76.03
2022-10-11T19:44:20.312Z,76.20
2022-10-11T19:46:52.756Z,76.10
2022-10-11T19:49:24.668Z,76.35
2022-10-11T19:51:52.935Z,76.10
2022-10-11T19:54:19.906Z,76.00
2022-10-11T19:56:47.362Z,75.94
2022-10-11T19:59:15.509Z,75.92
2022-10-11T20:01:42.531Z,75.79
2022-10-11T20:04:33.250Z,75.79
2022-10-11T20:06:59.074Z,75.65
2022-10-11T20:09:30.672Z,75.64
2022-10-11T20:11:58.185Z,75.73
2022-10-11T20:14:25.162Z,75.75
2022-10-11T20:16:52.171Z,75.74
2022-10-11T20:19:19.406Z,75.72
2022-10-11T20:21:46.194Z,75.87
2022-10-11T20:24:13.080Z,75.92
2022-10-11T20:26:40.153Z,76.13
2022-10-11T20:29:07.931Z,76.09
2022-10-11T20:31:38.470Z,75.99
2022-10-11T20:34:07.484Z,76.12
2022-10-11T20:36:36.296Z,76.24
2022-10-11T20:39:05.852Z,76.16
2022-10-11T20:41:37.336Z,76.26
2022-10-11T20:44:05.384Z,76.40
2022-10-11T20:46:36.215Z,76.20
2022-10-11T20:49:09.873Z,76.27
2022-10-11T20:51:39.090Z,76.21
2022-10-11T20:54:07.854Z,76.31
2022-10-11T20:56:35.441Z,76.24
2022-10-11T20:59:02.262Z,76.38
2022-10-11T21:01:40.798Z,76.39
2022-10-11T21:04:17.671Z,76.32
2022-10-11T21:06:44.426Z,76.38
2022-10-11T21:09:15.507Z,76.30
2022-10-11T21:11:43.469Z,76.32
2022-10-11T21:14:10.289Z,76.43
2022-10-11T21:16:36.894Z,76.48
2022-10-11T21:19:04.068Z,76.54
2022-10-11T21:21:31.168Z,76.68
2022-10-11T21:24:01.252Z,76.69
2022-10-11T21:26:28.981Z,76.77
2022-10-11T21:28:56.014Z,76.87
2022-10-11T21:31:23.369Z,77.21
2022-10-11T21:33:50.624Z,77.34
2022-10-11T21:36:24.286Z,77.34
2022-10-11T21:38:51.796Z,77.35
2022-10-11T21:41:22.339Z,77.52
2022-10-11T21:43:49.538Z,77.52
2022-10-11T21:46:23.764Z,77.63
2022-10-11T21:48:51.727Z,77.87
2022-10-11T21:51:30.137Z,78.12
2022-10-11T21:54:00.606Z,78.00
2022-10-11T21:56:28.741Z,77.85
2022-10-11T21:58:55.513Z,77.99
2022-10-11T22:01:22.657Z,78.21
2022-10-11T22:03:50.192Z,77.91
2022-10-11T22:06:17.223Z,77.92
2022-10-11T22:08:44.105Z,78.21
2022-10-11T22:11:10.866Z,78.33
2022-10-11T22:13:38.277Z,78.53
2022-10-11T22:16:11.408Z,78.55
2022-10-11T22:18:38.737Z,78.65
2022-10-11T22:21:13.694Z,78.82
2022-10-11T22:23:44.855Z,78.71
2022-10-11T22:26:18.231Z,78.52
2022-10-11T22:28:48.906Z,78.64
2022-10-11T22:31:19.709Z,78.75
2022-10-11T22:33:46.680Z,78.66
2022-10-11T22:36:16.622Z,78.75
2022-10-11T22:38:43.958Z,78.74
2022-10-11T22:41:11.027Z,78.79
2022-10-11T22:43:38.097Z,78.78
2022-10-11T22:46:05.384Z,78.82
2022-10-11T22:48:32.226Z,78.83
2022-10-11T22:50:59.164Z,79.15
2022-10-11T22:53:25.894Z,79.22
2022-10-11T22:55:52.452Z,79.28
2022-10-11T22:58:19.110Z,79.32
2022-10-11T23:00:45.951Z,79.52
2022-10-11T23:03:17.484Z,79.73
2022-10-11T23:05:44.418Z,79.63
2022-10-11T23:08:10.942Z,79.67
2022-10-11T23:10:40.544Z,80.09
2022-10-11T23:13:07.113Z,80.10
2022-10-11T23:15:33.700Z,79.87
2022-10-11T23:18:00.226Z,80.14
2022-10-11T23:20:26.794Z,80.14
2022-10-11T23:22:53.321Z,80.38
2022-10-11T23:25:19.884Z,80.30
2022-10-11T23:27:46.393Z,80.34
2022-10-11T23:30:13.743Z,80.69
2022-10-11T23:32:40.275Z,80.97
2022-10-11T23:35:07.405Z,81.09
2022-10-11T23:37:33.976Z,81.42
2022-10-11T23:40:00.587Z,81.50
2022-10-11T23:42:27.838Z,81.63
2022-10-11T23:44:54.322Z,81.50
2022-10-11T23:47:20.852Z,81.65
2022-10-11T23:49:47.439Z,81.72
2022-10-11T23:52:13.991Z,81.98
2022-10-11T23:54:40.561Z,81.81
2022-10-11T23:57:07.129Z,81.92
2022-10-11T23:59:33.658Z,81.82
